sensor_id;sensor_type;location;lat;lon;timestamp;temperature;humidity
20384;DHT22;46458;50.966;7.002;2024-02-15T00:00:54;12.00;99.90
20384;DHT22;46458;50.966;7.002;2024-02-15T00:03:26;12.10;99.90
20384;DHT22;46458;50.966;7.002;2024-02-15T00:05:55;12.50;99.90
20384;DHT22;46458;50.966;7.002;2024-02-15T00:08:24;12.10;99.90
20384;DHT22;46458;50.966;7.002;2024-02-15T00:10:52;12.30;99.90
20384;DHT22;46458;50.966;7.002;2024-02-15T00:13:21;12.20;99.90
20384;DHT22;46458;50.966;7.002;2024-02-15T00:15:51;12.40;99.90
20384;DHT22;46458;50.966;7.002;2024-02-15T00:18:19;11.90;99.90
20384;DHT22;46458;50.966;7.002;2024-02-15T00:20:52;12.40;99.90
20384;DHT22;46458;50.966;7.002;2024-02-15T00:23:20;12.10;99.90
20384;DHT22;46458;50.966;7.002;2024-02-15T00:25:49;12.10;99.90
20384;DHT22;46458;50.966;7.002;2024-02-15T00:28:18;12.20;99.90
20384;DHT22;46458;50.966;7.002;2024-02-15T00:35:42;12.00;99.90
20384;DHT22;46458;50.966;7.002;2024-02-15T00:38:14;12.70;99.90
20384;DHT22;46458;50.966;7.002;2024-02-15T00:40:42;12.30;99.90
20384;DHT22;46458;50.966;7.002;2024-02-15T00:43:11;11.90;99.90
20384;DHT22;46458;50.966;7.002;2024-02-15T00:45:43;12.40;99.90
20384;DHT22;46458;50.966;7.002;2024-02-15T00:48:12;12.00;99.90
20384;DHT22;46458;50.966;7.002;2024-02-15T00:50:38;12.40;99.90
20384;DHT22;46458;50.966;7.002;2024-02-15T00:53:07;12.40;99.90
20384;DHT22;46458;50.966;7.002;2024-02-15T00:55:38;12.50;99.90
20384;DHT22;46458;50.966;7.002;2024-02-15T00:58:07;12.20;99.90
20384;DHT22;46458;50.966;7.002;2024-02-15T01:00:35;12.00;99.90
20384;DHT22;46458;50.966;7.002;2024-02-15T01:03:04;12.50;99.90
20384;DHT22;46458;50.966;7.002;2024-02-15T01:05:33;12.40;99.90
20384;DHT22;46458;50.966;7.002;2024-02-15T01:08:02;12.30;99.90
20384;DHT22;46458;50.966;7.002;2024-02-15T01:10:34;11.90;99.90
20384;DHT22;46458;50.966;7.002;2024-02-15T01:13:05;12.60;99.90
20384;DHT22;46458;50.966;7.002;2024-02-15T01:15:34;12.30;99.90
20384;DHT22;46458;50.966;7.002;2024-02-15T01:18:03;12.30;99.90
20384;DHT22;46458;50.966;7.002;2024-02-15T01:20:32;12.20;99.90
20384;DHT22;46458;50.966;7.002;2024-02-15T01:23:02;12.50;99.90
20384;DHT22;46458;50.966;7.002;2024-02-15T01:25:31;12.10;99.90
20384;DHT22;46458;50.966;7.002;2024-02-15T01:27:59;12.30;99.90
20384;DHT22;46458;50.966;7.002;2024-02-15T01:30:32;12.10;99.90
20384;DHT22;46458;50.966;7.002;2024-02-15T01:33:01;12.20;99.90
20384;DHT22;46458;50.966;7.002;2024-02-15T01:35:29;11.90;99.90
20384;DHT22;46458;50.966;7.002;2024-02-15T01:37:58;12.10;99.90
20384;DHT22;46458;50.966;7.002;2024-02-15T01:40:27;12.30;99.90
20384;DHT22;46458;50.966;7.002;2024-02-15T01:42:56;12.70;99.90
20384;DHT22;46458;50.966;7.002;2024-02-15T01:45:26;12.70;99.90
20384;DHT22;46458;50.966;7.002;2024-02-15T01:47:58;12.00;99.90
20384;DHT22;46458;50.966;7.002;2024-02-15T01:50:27;12.10;99.90
20384;DHT22;46458;50.966;7.002;2024-02-15T01:52:59;12.20;99.90
20384;DHT22;46458;50.966;7.002;2024-02-15T01:55:27;12.20;99.90
20384;DHT22;46458;50.966;7.002;2024-02-15T01:57:56;12.10;99.90
20384;DHT22;46458;50.966;7.002;2024-02-15T02:00:25;12.00;99.90
20384;DHT22;46458;50.966;7.002;2024-02-15T02:02:58;12.70;99.90
20384;DHT22;46458;50.966;7.002;2024-02-15T02:05:29;12.20;99.90
20384;DHT22;46458;50.966;7.002;2024-02-15T02:07:58;12.30;99.90
20384;DHT22;46458;50.966;7.002;2024-02-15T02:10:30;12.30;99.90
20384;DHT22;46458;50.966;7.002;2024-02-15T02:12:59;12.60;99.90
20384;DHT22;46458;50.966;7.002;2024-02-15T02:15:31;12.20;99.90
20384;DHT22;46458;50.966;7.002;2024-02-15T02:18:03;12.30;99.90
20384;DHT22;46458;50.966;7.002;2024-02-15T02:20:34;12.00;99.90
20384;DHT22;46458;50.966;7.002;2024-02-15T02:23:07;12.10;99.90
20384;DHT22;46458;50.966;7.002;2024-02-15T02:25:39;12.20;99.90
20384;DHT22;46458;50.966;7.002;2024-02-15T02:28:09;12.00;99.90
20384;DHT22;46458;50.966;7.002;2024-02-15T02:30:38;12.30;94.30
20384;DHT22;46458;50.966;7.002;2024-02-15T02:33:11;12.20;80.60
20384;DHT22;46458;50.966;7.002;2024-02-15T02:35:47;12.20;64.00
20384;DHT22;46458;50.966;7.002;2024-02-15T02:38:16;12.00;63.50
20384;DHT22;46458;50.966;7.002;2024-02-15T02:40:47;12.30;69.40
20384;DHT22;46458;50.966;7.002;2024-02-15T02:43:16;12.50;60.70
20384;DHT22;46458;50.966;7.002;2024-02-15T02:45:45;12.20;61.90
20384;DHT22;46458;50.966;7.002;2024-02-15T02:48:14;12.30;55.40
20384;DHT22;46458;50.966;7.002;2024-02-15T02:50:44;12.10;62.40
20384;DHT22;46458;50.966;7.002;2024-02-15T02:53:13;12.10;64.80
20384;DHT22;46458;50.966;7.002;2024-02-15T02:55:41;12.10;69.20
20384;DHT22;46458;50.966;7.002;2024-02-15T02:58:13;12.10;62.40
20384;DHT22;46458;50.966;7.002;2024-02-15T03:00:42;12.50;46.80
20384;DHT22;46458;50.966;7.002;2024-02-15T03:03:12;12.30;42.50
20384;DHT22;46458;50.966;7.002;2024-02-15T03:05:44;12.00;29.70
20384;DHT22;46458;50.966;7.002;2024-02-15T03:08:15;12.10;80.80
20384;DHT22;46458;50.966;7.002;2024-02-15T03:10:44;12.60;45.40
20384;DHT22;46458;50.966;7.002;2024-02-15T03:13:15;11.10;49.90
20384;DHT22;46458;50.966;7.002;2024-02-15T03:15:45;12.30;44.50
20384;DHT22;46458;50.966;7.002;2024-02-15T03:18:15;12.00;39.40
20384;DHT22;46458;50.966;7.002;2024-02-15T03:20:44;12.00;45.00
20384;DHT22;46458;50.966;7.002;2024-02-15T03:23:14;12.20;46.90
20384;DHT22;46458;50.966;7.002;2024-02-15T03:25:43;12.10;56.20
20384;DHT22;46458;50.966;7.002;2024-02-15T03:28:12;12.10;59.70
20384;DHT22;46458;50.966;7.002;2024-02-15T03:30:44;12.30;64.90
20384;DHT22;46458;50.966;7.002;2024-02-15T03:33:13;12.00;72.90
20384;DHT22;46458;50.966;7.002;2024-02-15T03:35:42;12.20;81.50
20384;DHT22;46458;50.966;7.002;2024-02-15T03:38:11;12.10;92.40
20384;DHT22;46458;50.966;7.002;2024-02-15T03:45:38;11.90;89.70
20384;DHT22;46458;50.966;7.002;2024-02-15T03:48:10;12.20;88.10
20384;DHT22;46458;50.966;7.002;2024-02-15T03:50:38;12.10;93.90
20384;DHT22;46458;50.966;7.002;2024-02-15T03:53:09;12.30;94.40
20384;DHT22;46458;50.966;7.002;2024-02-15T03:55:39;12.10;91.00
20384;DHT22;46458;50.966;7.002;2024-02-15T03:58:08;12.10;82.80
20384;DHT22;46458;50.966;7.002;2024-02-15T04:00:40;12.20;81.50
20384;DHT22;46458;50.966;7.002;2024-02-15T04:03:12;12.30;81.20
20384;DHT22;46458;50.966;7.002;2024-02-15T04:05:41;12.20;90.50
20384;DHT22;46458;50.966;7.002;2024-02-15T04:08:10;11.70;92.50
20384;DHT22;46458;50.966;7.002;2024-02-15T04:10:39;12.20;80.50
20384;DHT22;46458;50.966;7.002;2024-02-15T04:13:08;12.30;77.30
20384;DHT22;46458;50.966;7.002;2024-02-15T04:15:37;12.10;80.80
20384;DHT22;46458;50.966;7.002;2024-02-15T04:18:07;12.10;62.50
20384;DHT22;46458;50.966;7.002;2024-02-15T04:20:39;12.20;71.20
20384;DHT22;46458;50.966;7.002;2024-02-15T04:23:10;12.40;89.40
20384;DHT22;46458;50.966;7.002;2024-02-15T04:25:39;12.10;85.70
20384;DHT22;46458;50.966;7.002;2024-02-15T04:28:09;12.20;77.30
20384;DHT22;46458;50.966;7.002;2024-02-15T04:30:38;12.10;53.40
20384;DHT22;46458;50.966;7.002;2024-02-15T04:33:07;12.40;43.00
20384;DHT22;46458;50.966;7.002;2024-02-15T04:35:39;12.20;16.40
20384;DHT22;46458;50.966;7.002;2024-02-15T04:38:07;12.30;1.00
20384;DHT22;46458;50.966;7.002;2024-02-15T04:40:37;12.30;1.00
20384;DHT22;46458;50.966;7.002;2024-02-15T04:43:05;12.20;1.00
20384;DHT22;46458;50.966;7.002;2024-02-15T04:45:34;12.60;1.00
20384;DHT22;46458;50.966;7.002;2024-02-15T04:48:06;12.30;1.00
20384;DHT22;46458;50.966;7.002;2024-02-15T04:50:34;12.10;1.00
20384;DHT22;46458;50.966;7.002;2024-02-15T04:53:06;12.30;1.00
20384;DHT22;46458;50.966;7.002;2024-02-15T04:55:35;12.30;1.00
20384;DHT22;46458;50.966;7.002;2024-02-15T04:58:03;12.60;1.00
20384;DHT22;46458;50.966;7.002;2024-02-15T05:00:32;12.30;1.00
20384;DHT22;46458;50.966;7.002;2024-02-15T05:03:02;12.50;1.00
20384;DHT22;46458;50.966;7.002;2024-02-15T05:05:33;12.30;1.00
20384;DHT22;46458;50.966;7.002;2024-02-15T05:08:07;12.50;1.00
20384;DHT22;46458;50.966;7.002;2024-02-15T05:10:36;12.40;1.00
20384;DHT22;46458;50.966;7.002;2024-02-15T05:13:04;12.40;1.00
20384;DHT22;46458;50.966;7.002;2024-02-15T05:15:33;12.50;1.00
20384;DHT22;46458;50.966;7.002;2024-02-15T05:18:05;12.50;1.00
20384;DHT22;46458;50.966;7.002;2024-02-15T05:20:34;12.70;1.00
20384;DHT22;46458;50.966;7.002;2024-02-15T05:23:07;12.40;1.00
20384;DHT22;46458;50.966;7.002;2024-02-15T05:25:35;12.60;1.00
20384;DHT22;46458;50.966;7.002;2024-02-15T05:28:04;12.90;1.00
20384;DHT22;46458;50.966;7.002;2024-02-15T05:30:34;12.30;1.00
20384;DHT22;46458;50.966;7.002;2024-02-15T05:33:05;12.40;1.00
20384;DHT22;46458;50.966;7.002;2024-02-15T05:35:36;12.40;1.00
20384;DHT22;46458;50.966;7.002;2024-02-15T05:38:08;12.30;1.00
20384;DHT22;46458;50.966;7.002;2024-02-15T05:40:41;12.40;1.00
20384;DHT22;46458;50.966;7.002;2024-02-15T05:43:09;12.30;1.00
20384;DHT22;46458;50.966;7.002;2024-02-15T05:45:39;12.40;1.00
20384;DHT22;46458;50.966;7.002;2024-02-15T05:48:09;12.40;1.00
20384;DHT22;46458;50.966;7.002;2024-02-15T05:50:41;12.40;1.00
20384;DHT22;46458;50.966;7.002;2024-02-15T05:53:12;11.50;1.00
20384;DHT22;46458;50.966;7.002;2024-02-15T05:55:41;12.40;1.00
20384;DHT22;46458;50.966;7.002;2024-02-15T05:58:10;12.60;1.00
20384;DHT22;46458;50.966;7.002;2024-02-15T06:00:39;12.50;1.00
20384;DHT22;46458;50.966;7.002;2024-02-15T06:03:10;12.20;1.00
20384;DHT22;46458;50.966;7.002;2024-02-15T06:05:41;12.40;1.00
20384;DHT22;46458;50.966;7.002;2024-02-15T06:08:13;12.40;1.00
20384;DHT22;46458;50.966;7.002;2024-02-15T06:10:42;12.50;1.00
20384;DHT22;46458;50.966;7.002;2024-02-15T06:13:12;12.30;1.00
20384;DHT22;46458;50.966;7.002;2024-02-15T06:15:41;12.40;1.00
20384;DHT22;46458;50.966;7.002;2024-02-15T06:18:12;12.40;1.00
20384;DHT22;46458;50.966;7.002;2024-02-15T06:20:42;12.30;1.00
20384;DHT22;46458;50.966;7.002;2024-02-15T06:23:17;12.20;1.00
20384;DHT22;46458;50.966;7.002;2024-02-15T06:25:46;12.40;1.00
20384;DHT22;46458;50.966;7.002;2024-02-15T06:28:16;12.30;1.00
20384;DHT22;46458;50.966;7.002;2024-02-15T06:31:08;12.40;1.00
20384;DHT22;46458;50.966;7.002;2024-02-15T06:33:49;12.40;1.00
20384;DHT22;46458;50.966;7.002;2024-02-15T06:36:31;12.20;1.00
20384;DHT22;46458;50.966;7.002;2024-02-15T06:39:15;12.30;1.00
20384;DHT22;46458;50.966;7.002;2024-02-15T06:41:56;12.30;1.00
20384;DHT22;46458;50.966;7.002;2024-02-15T06:44:25;12.40;1.00
20384;DHT22;46458;50.966;7.002;2024-02-15T06:46:53;12.50;1.00
20384;DHT22;46458;50.966;7.002;2024-02-15T06:49:23;12.30;1.00
20384;DHT22;46458;50.966;7.002;2024-02-15T06:51:53;12.40;1.00
20384;DHT22;46458;50.966;7.002;2024-02-15T06:54:24;12.50;1.00
20384;DHT22;46458;50.966;7.002;2024-02-15T06:56:53;12.50;1.00
20384;DHT22;46458;50.966;7.002;2024-02-15T06:59:22;12.60;1.00
20384;DHT22;46458;50.966;7.002;2024-02-15T07:01:51;12.50;1.00
20384;DHT22;46458;50.966;7.002;2024-02-15T07:04:21;12.30;1.00
20384;DHT22;46458;50.966;7.002;2024-02-15T07:06:51;12.50;1.00
20384;DHT22;46458;50.966;7.002;2024-02-15T07:09:20;12.40;1.00
20384;DHT22;46458;50.966;7.002;2024-02-15T07:11:52;12.60;99.90
20384;DHT22;46458;50.966;7.002;2024-02-15T07:14:21;12.70;99.90
20384;DHT22;46458;50.966;7.002;2024-02-15T07:16:50;12.60;99.90
20384;DHT22;46458;50.966;7.002;2024-02-15T07:19:19;12.70;99.90
20384;DHT22;46458;50.966;7.002;2024-02-15T07:21:47;12.80;99.90
20384;DHT22;46458;50.966;7.002;2024-02-15T07:24:16;12.60;99.90
20384;DHT22;46458;50.966;7.002;2024-02-15T07:26:45;12.60;1.00
20384;DHT22;46458;50.966;7.002;2024-02-15T07:29:16;12.50;1.00
20384;DHT22;46458;50.966;7.002;2024-02-15T07:31:45;12.70;1.00
20384;DHT22;46458;50.966;7.002;2024-02-15T07:34:14;12.50;1.00
20384;DHT22;46458;50.966;7.002;2024-02-15T07:36:43;12.50;1.00
20384;DHT22;46458;50.966;7.002;2024-02-15T07:39:12;12.70;1.00
20384;DHT22;46458;50.966;7.002;2024-02-15T07:41:48;12.70;1.00
20384;DHT22;46458;50.966;7.002;2024-02-15T07:44:20;12.70;1.00
20384;DHT22;46458;50.966;7.002;2024-02-15T07:46:49;12.70;1.00
20384;DHT22;46458;50.966;7.002;2024-02-15T07:49:18;12.50;1.00
20384;DHT22;46458;50.966;7.002;2024-02-15T07:51:48;12.80;1.00
20384;DHT22;46458;50.966;7.002;2024-02-15T07:54:18;12.70;1.00
20384;DHT22;46458;50.966;7.002;2024-02-15T07:56:48;13.40;1.00
20384;DHT22;46458;50.966;7.002;2024-02-15T07:59:20;13.00;1.00
20384;DHT22;46458;50.966;7.002;2024-02-15T08:01:48;12.60;1.00
20384;DHT22;46458;50.966;7.002;2024-02-15T08:04:18;12.60;1.00
20384;DHT22;46458;50.966;7.002;2024-02-15T08:06:47;13.00;1.00
20384;DHT22;46458;50.966;7.002;2024-02-15T08:09:18;12.60;1.00
20384;DHT22;46458;50.966;7.002;2024-02-15T08:11:49;12.70;1.00
20384;DHT22;46458;50.966;7.002;2024-02-15T08:14:21;12.80;1.00
20384;DHT22;46458;50.966;7.002;2024-02-15T08:16:49;12.90;1.00
20384;DHT22;46458;50.966;7.002;2024-02-15T08:19:18;12.90;1.00
20384;DHT22;46458;50.966;7.002;2024-02-15T08:21:48;12.70;1.00
20384;DHT22;46458;50.966;7.002;2024-02-15T08:24:18;12.60;1.00
20384;DHT22;46458;50.966;7.002;2024-02-15T08:26:46;13.10;1.00
20384;DHT22;46458;50.966;7.002;2024-02-15T08:29:16;12.60;3.20
20384;DHT22;46458;50.966;7.002;2024-02-15T08:31:48;12.60;47.60
20384;DHT22;46458;50.966;7.002;2024-02-15T08:34:17;12.90;40.90
20384;DHT22;46458;50.966;7.002;2024-02-15T08:36:46;12.50;38.70
20384;DHT22;46458;50.966;7.002;2024-02-15T08:39:16;12.80;46.10
20384;DHT22;46458;50.966;7.002;2024-02-15T08:41:45;12.60;1.00
20384;DHT22;46458;50.966;7.002;2024-02-15T08:44:13;12.70;1.00
20384;DHT22;46458;50.966;7.002;2024-02-15T08:46:45;12.50;1.00
20384;DHT22;46458;50.966;7.002;2024-02-15T08:49:16;12.60;1.00
20384;DHT22;46458;50.966;7.002;2024-02-15T08:51:45;12.70;1.00
20384;DHT22;46458;50.966;7.002;2024-02-15T08:54:14;12.60;1.00
20384;DHT22;46458;50.966;7.002;2024-02-15T08:59:11;12.40;1.00
20384;DHT22;46458;50.966;7.002;2024-02-15T09:01:41;12.70;1.00
20384;DHT22;46458;50.966;7.002;2024-02-15T09:04:12;12.60;1.00
20384;DHT22;46458;50.966;7.002;2024-02-15T09:06:43;12.60;1.00
20384;DHT22;46458;50.966;7.002;2024-02-15T09:09:12;12.90;1.00
20384;DHT22;46458;50.966;7.002;2024-02-15T09:11:41;13.30;1.00
20384;DHT22;46458;50.966;7.002;2024-02-15T09:14:10;13.20;1.00
20384;DHT22;46458;50.966;7.002;2024-02-15T09:16:39;13.10;1.00
20384;DHT22;46458;50.966;7.002;2024-02-15T09:19:07;13.30;1.00
20384;DHT22;46458;50.966;7.002;2024-02-15T09:21:36;13.30;1.00
20384;DHT22;46458;50.966;7.002;2024-02-15T09:24:08;13.20;1.00
20384;DHT22;46458;50.966;7.002;2024-02-15T09:26:36;13.60;1.00
20384;DHT22;46458;50.966;7.002;2024-02-15T09:29:05;13.70;99.90
20384;DHT22;46458;50.966;7.002;2024-02-15T09:31:34;14.10;99.90
20384;DHT22;46458;50.966;7.002;2024-02-15T09:34:03;14.10;99.90
20384;DHT22;46458;50.966;7.002;2024-02-15T09:36:34;13.90;1.00
20384;DHT22;46458;50.966;7.002;2024-02-15T09:39:03;13.60;96.30
20384;DHT22;46458;50.966;7.002;2024-02-15T09:41:35;13.70;99.90
20384;DHT22;46458;50.966;7.002;2024-02-15T09:44:04;13.70;99.90
20384;DHT22;46458;50.966;7.002;2024-02-15T09:46:35;13.40;99.90
20384;DHT22;46458;50.966;7.002;2024-02-15T09:49:04;13.60;99.90
20384;DHT22;46458;50.966;7.002;2024-02-15T09:51:33;13.60;99.90
20384;DHT22;46458;50.966;7.002;2024-02-15T09:54:03;13.50;1.00
20384;DHT22;46458;50.966;7.002;2024-02-15T09:56:38;13.90;1.00
20384;DHT22;46458;50.966;7.002;2024-02-15T09:59:08;14.00;1.00
20384;DHT22;46458;50.966;7.002;2024-02-15T10:01:37;14.50;99.90
20384;DHT22;46458;50.966;7.002;2024-02-15T10:04:07;14.20;1.00
20384;DHT22;46458;50.966;7.002;2024-02-15T10:06:41;14.40;99.90
20384;DHT22;46458;50.966;7.002;2024-02-15T10:09:26;14.20;99.90
20384;DHT22;46458;50.966;7.002;2024-02-15T10:12:01;14.30;99.90
20384;DHT22;46458;50.966;7.002;2024-02-15T10:14:33;14.20;1.00
20384;DHT22;46458;50.966;7.002;2024-02-15T10:17:06;14.40;1.00
20384;DHT22;46458;50.966;7.002;2024-02-15T10:19:37;13.90;1.00
20384;DHT22;46458;50.966;7.002;2024-02-15T10:22:09;13.90;1.00
20384;DHT22;46458;50.966;7.002;2024-02-15T10:24:41;14.30;1.00
20384;DHT22;46458;50.966;7.002;2024-02-15T10:27:12;14.30;1.00
20384;DHT22;46458;50.966;7.002;2024-02-15T10:29:41;14.20;99.90
20384;DHT22;46458;50.966;7.002;2024-02-15T10:32:11;14.40;99.90
20384;DHT22;46458;50.966;7.002;2024-02-15T10:34:44;14.20;1.00
20384;DHT22;46458;50.966;7.002;2024-02-15T10:37:15;14.20;99.90
20384;DHT22;46458;50.966;7.002;2024-02-15T10:39:46;14.50;1.00
20384;DHT22;46458;50.966;7.002;2024-02-15T10:42:27;14.20;1.00
20384;DHT22;46458;50.966;7.002;2024-02-15T10:44:56;14.50;1.00
20384;DHT22;46458;50.966;7.002;2024-02-15T10:47:27;14.70;99.90
20384;DHT22;46458;50.966;7.002;2024-02-15T10:49:56;14.00;99.90
20384;DHT22;46458;50.966;7.002;2024-02-15T10:52:31;14.90;1.00
20384;DHT22;46458;50.966;7.002;2024-02-15T10:55:04;15.00;1.00
20384;DHT22;46458;50.966;7.002;2024-02-15T10:57:38;14.60;1.00
20384;DHT22;46458;50.966;7.002;2024-02-15T11:00:09;15.00;1.00
20384;DHT22;46458;50.966;7.002;2024-02-15T11:02:54;14.70;1.00
20384;DHT22;46458;50.966;7.002;2024-02-15T11:05:29;15.00;1.00
20384;DHT22;46458;50.966;7.002;2024-02-15T11:08:00;15.40;99.90
20384;DHT22;46458;50.966;7.002;2024-02-15T11:10:30;15.00;1.00
20384;DHT22;46458;50.966;7.002;2024-02-15T11:13:03;15.30;99.90
20384;DHT22;46458;50.966;7.002;2024-02-15T11:15:44;15.10;1.00
20384;DHT22;46458;50.966;7.002;2024-02-15T11:18:44;15.00;99.90
20384;DHT22;46458;50.966;7.002;2024-02-15T11:21:15;15.20;99.90
20384;DHT22;46458;50.966;7.002;2024-02-15T11:23:44;15.50;1.00
20384;DHT22;46458;50.966;7.002;2024-02-15T11:32:34;15.30;1.00
20384;DHT22;46458;50.966;7.002;2024-02-15T11:35:06;16.10;1.00
20384;DHT22;46458;50.966;7.002;2024-02-15T11:37:53;15.60;1.00
20384;DHT22;46458;50.966;7.002;2024-02-15T11:40:25;15.70;1.00
20384;DHT22;46458;50.966;7.002;2024-02-15T11:42:55;15.80;1.00
20384;DHT22;46458;50.966;7.002;2024-02-15T11:45:26;15.70;1.00
20384;DHT22;46458;50.966;7.002;2024-02-15T11:48:01;15.80;1.00
20384;DHT22;46458;50.966;7.002;2024-02-15T11:50:34;15.90;1.00
20384;DHT22;46458;50.966;7.002;2024-02-15T11:53:06;15.90;1.00
20384;DHT22;46458;50.966;7.002;2024-02-15T11:55:36;16.00;1.00
20384;DHT22;46458;50.966;7.002;2024-02-15T11:58:05;15.80;1.00
20384;DHT22;46458;50.966;7.002;2024-02-15T12:00:43;15.90;1.00
20384;DHT22;46458;50.966;7.002;2024-02-15T12:03:27;16.50;99.90
20384;DHT22;46458;50.966;7.002;2024-02-15T12:06:08;16.30;99.90
20384;DHT22;46458;50.966;7.002;2024-02-15T12:08:51;16.00;1.00
20384;DHT22;46458;50.966;7.002;2024-02-15T12:11:32;16.30;99.90
20384;DHT22;46458;50.966;7.002;2024-02-15T12:14:14;16.70;99.90
20384;DHT22;46458;50.966;7.002;2024-02-15T12:17:02;16.20;1.00
20384;DHT22;46458;50.966;7.002;2024-02-15T12:19:48;16.50;1.00
20384;DHT22;46458;50.966;7.002;2024-02-15T12:22:21;16.40;1.00
20384;DHT22;46458;50.966;7.002;2024-02-15T12:24:55;16.30;1.00
20384;DHT22;46458;50.966;7.002;2024-02-15T12:27:24;16.30;1.00
20384;DHT22;46458;50.966;7.002;2024-02-15T12:29:55;16.30;1.00
20384;DHT22;46458;50.966;7.002;2024-02-15T12:32:24;16.20;1.00
20384;DHT22;46458;50.966;7.002;2024-02-15T12:35:10;16.50;1.00
20384;DHT22;46458;50.966;7.002;2024-02-15T12:37:41;16.20;1.00
20384;DHT22;46458;50.966;7.002;2024-02-15T12:40:11;16.70;1.00
20384;DHT22;46458;50.966;7.002;2024-02-15T12:42:42;16.80;1.00
20384;DHT22;46458;50.966;7.002;2024-02-15T12:45:16;17.00;1.00
20384;DHT22;46458;50.966;7.002;2024-02-15T12:47:48;17.30;1.00
20384;DHT22;46458;50.966;7.002;2024-02-15T12:50:21;17.20;1.00
20384;DHT22;46458;50.966;7.002;2024-02-15T12:52:51;17.20;1.00
20384;DHT22;46458;50.966;7.002;2024-02-15T12:55:22;17.20;99.90
20384;DHT22;46458;50.966;7.002;2024-02-15T12:57:52;17.00;99.90
20384;DHT22;46458;50.966;7.002;2024-02-15T13:00:23;17.30;99.90
20384;DHT22;46458;50.966;7.002;2024-02-15T13:02:55;17.60;99.90
20384;DHT22;46458;50.966;7.002;2024-02-15T13:05:27;17.50;99.90
20384;DHT22;46458;50.966;7.002;2024-02-15T13:07:57;17.50;99.90
20384;DHT22;46458;50.966;7.002;2024-02-15T13:10:28;17.40;99.90
20384;DHT22;46458;50.966;7.002;2024-02-15T13:12:58;17.50;99.90
20384;DHT22;46458;50.966;7.002;2024-02-15T13:15:27;17.50;99.90
20384;DHT22;46458;50.966;7.002;2024-02-15T13:17:58;17.30;99.90
20384;DHT22;46458;50.966;7.002;2024-02-15T13:20:32;17.30;99.90
20384;DHT22;46458;50.966;7.002;2024-02-15T13:23:04;17.60;99.90
20384;DHT22;46458;50.966;7.002;2024-02-15T13:25:41;17.00;99.90
20384;DHT22;46458;50.966;7.002;2024-02-15T13:28:11;17.20;99.90
20384;DHT22;46458;50.966;7.002;2024-02-15T13:30:40;17.20;99.90
20384;DHT22;46458;50.966;7.002;2024-02-15T13:33:11;17.00;99.90
20384;DHT22;46458;50.966;7.002;2024-02-15T13:35:42;16.80;99.90
20384;DHT22;46458;50.966;7.002;2024-02-15T13:38:11;16.80;99.90
20384;DHT22;46458;50.966;7.002;2024-02-15T13:40:47;16.90;99.90
20384;DHT22;46458;50.966;7.002;2024-02-15T13:43:16;16.70;99.90
20384;DHT22;46458;50.966;7.002;2024-02-15T13:45:45;16.90;99.90
20384;DHT22;46458;50.966;7.002;2024-02-15T13:48:14;16.80;99.90
20384;DHT22;46458;50.966;7.002;2024-02-15T13:50:46;16.90;99.90
20384;DHT22;46458;50.966;7.002;2024-02-15T13:53:14;17.20;99.90
20384;DHT22;46458;50.966;7.002;2024-02-15T13:55:43;17.30;99.90
20384;DHT22;46458;50.966;7.002;2024-02-15T13:58:13;17.20;99.90
20384;DHT22;46458;50.966;7.002;2024-02-15T14:00:42;17.30;99.90
20384;DHT22;46458;50.966;7.002;2024-02-15T14:03:11;17.50;99.90
20384;DHT22;46458;50.966;7.002;2024-02-15T14:05:41;17.50;99.90
20384;DHT22;46458;50.966;7.002;2024-02-15T14:08:14;17.20;99.90
20384;DHT22;46458;50.966;7.002;2024-02-15T14:10:46;17.40;99.90
20384;DHT22;46458;50.966;7.002;2024-02-15T14:13:15;17.10;99.90
20384;DHT22;46458;50.966;7.002;2024-02-15T14:15:44;17.30;99.90
20384;DHT22;46458;50.966;7.002;2024-02-15T14:18:13;17.20;99.90
20384;DHT22;46458;50.966;7.002;2024-02-15T14:20:44;17.80;99.90
20384;DHT22;46458;50.966;7.002;2024-02-15T14:23:15;17.30;58.10
20384;DHT22;46458;50.966;7.002;2024-02-15T14:25:44;17.40;72.80
20384;DHT22;46458;50.966;7.002;2024-02-15T14:28:14;17.10;69.90
20384;DHT22;46458;50.966;7.002;2024-02-15T14:30:43;17.10;75.40
20384;DHT22;46458;50.966;7.002;2024-02-15T14:33:24;17.20;1.00
20384;DHT22;46458;50.966;7.002;2024-02-15T14:35:53;17.30;51.80
20384;DHT22;46458;50.966;7.002;2024-02-15T14:38:24;17.40;1.00
20384;DHT22;46458;50.966;7.002;2024-02-15T14:40:53;17.30;69.60
20384;DHT22;46458;50.966;7.002;2024-02-15T14:43:24;17.20;90.90
20384;DHT22;46458;50.966;7.002;2024-02-15T14:45:53;17.30;18.20
20384;DHT22;46458;50.966;7.002;2024-02-15T14:48:22;17.50;47.80
20384;DHT22;46458;50.966;7.002;2024-02-15T14:50:51;17.10;1.00
20384;DHT22;46458;50.966;7.002;2024-02-15T14:53:24;17.10;30.70
20384;DHT22;46458;50.966;7.002;2024-02-15T14:55:53;17.10;1.00
20384;DHT22;46458;50.966;7.002;2024-02-15T14:58:22;17.20;85.70
20384;DHT22;46458;50.966;7.002;2024-02-15T15:00:50;17.00;68.00
20384;DHT22;46458;50.966;7.002;2024-02-15T15:03:20;17.00;67.20
20384;DHT22;46458;50.966;7.002;2024-02-15T15:05:48;17.20;16.90
20384;DHT22;46458;50.966;7.002;2024-02-15T15:08:32;17.00;1.00
20384;DHT22;46458;50.966;7.002;2024-02-15T15:11:13;16.90;1.00
20384;DHT22;46458;50.966;7.002;2024-02-15T15:13:55;17.50;1.00
20384;DHT22;46458;50.966;7.002;2024-02-15T15:16:23;17.00;24.20
20384;DHT22;46458;50.966;7.002;2024-02-15T15:18:53;16.90;1.00
20384;DHT22;46458;50.966;7.002;2024-02-15T15:21:22;16.90;4.70
20384;DHT22;46458;50.966;7.002;2024-02-15T15:23:55;17.20;5.00
20384;DHT22;46458;50.966;7.002;2024-02-15T15:26:24;16.90;1.00
20384;DHT22;46458;50.966;7.002;2024-02-15T15:28:56;17.10;1.00
20384;DHT22;46458;50.966;7.002;2024-02-15T15:31:25;16.70;6.90
20384;DHT22;46458;50.966;7.002;2024-02-15T15:33:55;16.60;91.20
20384;DHT22;46458;50.966;7.002;2024-02-15T15:36:24;17.00;99.90
20384;DHT22;46458;50.966;7.002;2024-02-15T15:38:56;16.80;99.90
20384;DHT22;46458;50.966;7.002;2024-02-15T15:41:27;16.60;99.90
20384;DHT22;46458;50.966;7.002;2024-02-15T15:43:56;16.80;99.90
20384;DHT22;46458;50.966;7.002;2024-02-15T15:46:25;16.70;99.90
20384;DHT22;46458;50.966;7.002;2024-02-15T15:48:54;16.80;99.90
20384;DHT22;46458;50.966;7.002;2024-02-15T15:51:23;16.50;99.90
20384;DHT22;46458;50.966;7.002;2024-02-15T15:53:52;16.50;99.90
20384;DHT22;46458;50.966;7.002;2024-02-15T15:56:23;16.70;99.90
20384;DHT22;46458;50.966;7.002;2024-02-15T15:58:52;16.50;99.90
20384;DHT22;46458;50.966;7.002;2024-02-15T16:01:23;16.30;99.90
20384;DHT22;46458;50.966;7.002;2024-02-15T16:03:52;16.20;99.90
20384;DHT22;46458;50.966;7.002;2024-02-15T16:06:21;16.30;99.90
20384;DHT22;46458;50.966;7.002;2024-02-15T16:08:49;16.10;99.90
20384;DHT22;46458;50.966;7.002;2024-02-15T16:11:18;16.50;99.90
20384;DHT22;46458;50.966;7.002;2024-02-15T16:13:50;16.20;99.90
20384;DHT22;46458;50.966;7.002;2024-02-15T16:16:19;16.40;99.90
20384;DHT22;46458;50.966;7.002;2024-02-15T16:18:48;16.10;99.90